METAR Data
IDs: Format: Raw Decoded Include TAF

Data at: 1906 UTC 25 Sep 2020

KENW 251853Z 19013G22KT 10SM CLR 26/13 A2992 RMK AO2 SLP129 T02610133
KENW 251753Z 22011G18KT 10SM CLR 26/13 A2995 RMK AO2 SLP139 T02560133 10256 20144 58014
KENW 251653Z 19011KT 10SM CLR 25/13 A2997 RMK AO2 SLP145 T02500133
KENW 251553Z 19010KT 10SM CLR 24/14 A2998 RMK AO2 SLP150 T02390139
KENW 251453Z 22008KT 10SM CLR 22/14 A2999 RMK AO2 SLP153 T02170139 51005
KENW 251353Z 22006KT 10SM CLR 19/13 A2999 RMK AO2 SLP152 T01890133
KENW 251253Z 21005KT 10SM CLR 16/13 A2998 RMK AO2 SLP152 T01610133
KENW 251153Z 22005KT 10SM CLR 15/12 A2998 RMK AO2 SLP149 T01500117 10167 20133 51010
KENW 251053Z AUTO 22004KT 10SM CLR 15/12 A2997 RMK AO2 SLP147 T01500122
KENW 250953Z AUTO 22004KT 10SM CLR 14/12 A2996 RMK AO2 SLP143 T01390117
KENW 250853Z AUTO 22003KT 10SM CLR 14/12 A2994 RMK AO2 SLP137 T01390117 53003
KENW 250753Z AUTO 22004KT 10SM CLR 16/13 A2993 RMK AO2 SLP134 T01560128
KENW 250653Z AUTO 20005KT 10SM CLR 16/13 A2994 RMK AO2 SLP134 T01610133
KENW 250553Z AUTO 20004KT 10SM CLR 17/14 A2994 RMK AO2 SLP134 T01670139 10217 20144 402610122 50004
KENW 250453Z AUTO 21003KT 10SM CLR 16/14 A2994 RMK AO2 SLP134 T01610139
KENW 250353Z AUTO 21003KT 10SM CLR 18/14 A2993 RMK AO2 SLP133 T01830144
KENW 250253Z AUTO 17008KT 10SM CLR 19/15 A2992 RMK AO2 SLP131 T01890150 50003
KENW 250153Z 17005KT 10SM FEW120 19/16 A2992 RMK AO2 SLP131 T01940156
KENW 250053Z 15005KT 10SM FEW120 20/16 A2992 RMK AO2 SLP130 T02000156
KENW 242353Z 13006KT 10SM BKN055 22/16 A2991 RMK AO2 SLP129 T02170161 10261 20217 53012
KENW 242253Z 19005KT 10SM FEW055 24/15 A2989 RMK AO2 SLP121 T02390150
KENW 242153Z 19005KT 10SM BKN050 24/15 A2988 RMK AO2 SLP116 T02440150
KENW 242053Z 22007KT 10SM FEW043 FEW055 26/15 A2988 RMK AO2 SLP116 T02560150 58014
KENW 241953Z 24009KT 10SM BKN045 BKN060 24/16 A2990 RMK AO2 SLP124 T02440156
KENW 241853Z 23010KT 10SM FEW045 BKN060 26/16 A2992 RMK AO2 SLP128 T02560161
KENW 241753Z 23009G18KT 10SM SCT039 24/16 A2992 RMK AO2 SLP130 T02440156 10256 20122 58013
KENW 241653Z 22008KT 10SM FEW031 24/17 A2995 RMK AO2 SLP139 T02440167
KENW 241553Z 22008KT 10SM CLR 23/17 A2995 RMK AO2 SLP140 T02330167
KENW 241453Z 24008KT 10SM CLR 21/16 A2996 RMK AO2 SLP145 T02060161 51004
KENW 241353Z 24005KT 10SM CLR 18/14 A2996 RMK AO2 SLP143 T01780144
KENW 241253Z 24004KT 9SM CLR 15/13 A2996 RMK AO2 SLP142 T01500128
KENW 241153Z 24004KT 9SM CLR 13/11 A2995 RMK AO2 SLP141 T01280111 10156 20122 51004
KENW 241053Z AUTO 21005KT 10SM CLR 14/12 A2995 RMK AO2 SLP139 T01390117
KENW 240953Z AUTO 22005KT 10SM CLR 13/11 A2994 RMK AO2 SLP138 T01280106
KENW 240853Z AUTO 24003KT 10SM CLR 13/11 A2994 RMK AO2 SLP136 T01330111 55008
KENW 240753Z AUTO 22004KT 10SM CLR 15/12 A2993 RMK AO2 SLP133 T01500122